Terminal Aerodrome Forecast
Issued by NWS

Home | Current Version | Previous Version | Graphics & Text | Print | Product List | Glossary On
Versions: 1 2 3 4 5 6 7 8 9 10 11 12 13 14 15 16 17 18 19 20 21
000
FTUS43 KICT 251940 AAA
TAFHUT
TAF AMD
KHUT 251940Z 2520/2618 35015KT P6SM SCT025
     FM260200 04014G20KT P6SM BKN025
     FM261000 07015KT P6SM OVC015=

USA.gov is the U.S. government's official web portal to all federal, state and local government web resources and services.